Time;durP1;ratioP1;P1;durP2;ratioP2;P2;SDS_P1;SDS_P2;PMS_P1;PMS_P2;Temp;Humidity;BMP_temperature;BMP_pressure;BME280_temperature;BME280_humidity;BME280_pressure;Samples;Min_cycle;Max_cycle;Signal;HPM_P1;HPM_P2
2021/01/11 00:00:55;;;;;;;1.40;1.30;;;4.20;98.50;;;;;;4967979;28;20182;-70
2021/01/11 00:03:21;;;;;;;1.73;1.10;;;4.20;98.50;;;;;;4972446;28;20190;-71
2021/01/11 00:05:47;;;;;;;0.83;0.70;;;4.20;98.50;;;;;;4969464;28;20186;-70
2021/01/11 00:08:13;;;;;;;0.60;0.60;;;4.10;98.50;;;;;;4968507;28;20214;-70
2021/01/11 00:10:38;;;;;;;0.40;0.40;;;4.00;98.50;;;;;;4967272;28;20190;-70
2021/01/11 00:13:04;;;;;;;0.50;0.50;;;3.90;98.50;;;;;;4968930;28;20655;-70
2021/01/11 00:15:30;;;;;;;0.40;0.40;;;3.90;98.50;;;;;;4968833;28;20290;-70
2021/01/11 00:17:55;;;;;;;0.40;0.40;;;3.90;98.50;;;;;;4968710;28;20178;-70
2021/01/11 00:20:21;;;;;;;0.33;0.33;;;3.90;98.50;;;;;;4968693;28;20186;-70
2021/01/11 00:22:46;;;;;;;0.40;0.40;;;3.90;98.50;;;;;;4969067;28;20182;-70
2021/01/11 00:25:13;;;;;;;0.30;0.30;;;3.90;98.50;;;;;;4968194;28;20575;-71
2021/01/11 00:27:39;;;;;;;0.20;0.20;;;3.90;98.50;;;;;;4968405;28;20208;-71
2021/01/11 00:30:07;;;;;;;0.30;0.30;;;3.90;98.50;;;;;;4950508;28;20178;-71
2021/01/11 00:32:36;;;;;;;0.40;0.40;;;4.00;98.50;;;;;;4966672;28;20178;-70
2021/01/11 00:35:04;;;;;;;0.40;0.30;;;4.00;98.50;;;;;;4951262;28;20205;-70
2021/01/11 00:37:29;;;;;;;0.63;0.30;;;4.00;98.50;;;;;;4950475;28;20206;-71
2021/01/11 00:39:55;;;;;;;0.70;0.67;;;4.00;98.50;;;;;;4972780;28;20636;-71
2021/01/11 00:42:21;;;;;;;0.50;0.30;;;4.10;98.50;;;;;;4967870;28;20182;-71
2021/01/11 00:44:48;;;;;;;0.20;0.20;;;4.10;98.50;;;;;;4968043;28;20221;-71
2021/01/11 00:47:14;;;;;;;0.80;0.40;;;4.10;98.50;;;;;;4968003;28;20182;-71
2021/01/11 00:49:40;;;;;;;0.30;0.30;;;4.10;98.50;;;;;;4968169;28;20186;-71
2021/01/11 00:52:06;;;;;;;0.30;0.30;;;4.10;98.50;;;;;;4968838;28;20285;-71
2021/01/11 00:54:32;;;;;;;0.20;0.20;;;4.10;98.50;;;;;;4950614;28;20727;-70
2021/01/11 00:56:57;;;;;;;0.10;0.10;;;4.10;98.50;;;;;;4967611;28;20202;-71
2021/01/11 00:59:25;;;;;;;0.30;0.30;;;4.10;98.50;;;;;;4975996;28;20188;-71
2021/01/11 01:01:55;;;;;;;0.20;0.20;;;4.10;98.50;;;;;;4953381;28;20189;-71
2021/01/11 01:04:21;;;;;;;0.40;0.40;;;4.20;98.50;;;;;;4952098;28;20288;-71
2021/01/11 01:06:47;;;;;;;0.50;0.50;;;4.20;98.50;;;;;;4983299;28;20183;-71
2021/01/11 01:09:13;;;;;;;0.50;0.50;;;4.30;98.50;;;;;;4968103;28;20288;-70
2021/01/11 01:11:40;;;;;;;0.30;0.30;;;4.20;98.50;;;;;;4967429;28;20186;-70
2021/01/11 01:14:06;;;;;;;0.40;0.40;;;4.30;98.50;;;;;;4967249;28;20183;-69
2021/01/11 01:16:32;;;;;;;1.40;0.90;;;4.30;98.40;;;;;;4967456;28;20213;-71
2021/01/11 01:18:59;;;;;;;0.93;0.80;;;4.30;98.40;;;;;;4967083;28;20190;-70
2021/01/11 01:21:25;;;;;;;0.60;0.60;;;4.30;98.40;;;;;;4966189;28;20187;-71
2021/01/11 01:23:50;;;;;;;0.80;0.80;;;4.30;98.40;;;;;;4971371;28;20268;-71
2021/01/11 01:26:16;;;;;;;1.67;1.00;;;4.30;98.50;;;;;;4972207;28;20186;-71
2021/01/11 01:28:42;;;;;;;1.70;0.50;;;4.20;98.50;;;;;;4983837;28;20198;-70
2021/01/11 01:31:09;;;;;;;0.60;0.60;;;4.20;98.50;;;;;;4972788;28;20549;-71
2021/01/11 01:33:35;;;;;;;0.63;0.63;;;4.20;98.50;;;;;;4967450;28;20281;-71
2021/01/11 01:36:01;;;;;;;0.40;0.40;;;4.20;98.50;;;;;;4970677;28;20289;-71
2021/01/11 01:38:28;;;;;;;0.63;0.63;;;4.30;98.50;;;;;;4966713;28;20197;-70
2021/01/11 01:40:55;;;;;;;0.50;0.50;;;4.30;98.50;;;;;;4965843;28;20210;-70
2021/01/11 01:43:21;;;;;;;0.50;0.50;;;4.30;98.50;;;;;;4949713;28;20285;-70
2021/01/11 01:45:47;;;;;;;0.60;0.60;;;4.30;98.50;;;;;;4966160;28;20265;-70
2021/01/11 01:48:13;;;;;;;0.90;0.50;;;4.40;98.50;;;;;;4964509;28;20198;-70
2021/01/11 01:50:40;;;;;;;0.77;0.50;;;4.40;98.50;;;;;;4964947;28;20190;-70
2021/01/11 01:53:07;;;;;;;1.50;0.30;;;4.40;98.50;;;;;;4964746;28;20197;-71
2021/01/11 01:55:32;;;;;;;0.33;0.33;;;4.50;98.50;;;;;;4964336;28;20419;-71
2021/01/11 01:58:02;;;;;;;0.93;0.60;;;4.50;98.50;;;;;;4965830;28;20731;-71
2021/01/11 02:00:28;;;;;;;1.17;1.00;;;4.40;98.50;;;;;;4965267;28;20178;-71
2021/01/11 02:02:53;;;;;;;0.80;0.80;;;4.50;98.50;;;;;;4966551;28;20893;-71
2021/01/11 02:05:20;;;;;;;1.80;0.60;;;4.50;98.50;;;;;;4966927;28;20194;-71
2021/01/11 02:08:02;;;;;;;1.40;1.27;;;4.50;98.50;;;;;;4966792;28;20183;-71
2021/01/11 02:10:40;;;;;;;1.43;1.33;;;4.50;98.50;;;;;;4964789;28;20179;-71
2021/01/11 02:13:30;;;;;;;1.57;0.77;;;4.50;98.50;;;;;;4966104;28;20244;-71
2021/01/11 02:16:12;;;;;;;0.60;0.60;;;4.50;98.50;;;;;;4964952;28;20673;-71
2021/01/11 02:19:05;;;;;;;0.80;0.80;;;4.40;98.50;;;;;;4966769;28;20663;-71
2021/01/11 02:21:58;;;;;;;0.63;0.63;;;4.40;98.40;;;;;;4965275;28;20182;-70
2021/01/11 02:24:51;;;;;;;1.17;0.73;;;4.40;98.50;;;;;;4966884;28;20174;-71
2021/01/11 02:27:19;;;;;;;1.53;0.80;;;4.40;98.50;;;;;;4930348;29;20201;-71
2021/01/11 02:30:09;;;;;;;0.80;0.80;;;4.40;98.50;;;;;;4946385;28;20189;-71
2021/01/11 02:32:49;;;;;;;0.87;0.87;;;4.40;98.50;;;;;;4966580;28;20193;-71
2021/01/11 02:35:17;;;;;;;1.70;1.07;;;4.40;98.50;;;;;;4950827;28;20593;-71
2021/01/11 02:37:43;;;;;;;0.70;0.70;;;4.30;98.50;;;;;;4965821;28;20190;-71
2021/01/11 02:40:10;;;;;;;1.43;1.00;;;4.20;98.50;;;;;;4964167;28;20197;-71
2021/01/11 02:42:37;;;;;;;0.70;0.70;;;4.10;98.50;;;;;;4965672;28;20190;-70
2021/01/11 02:45:05;;;;;;;0.80;0.80;;;4.10;98.50;;;;;;4966199;28;20189;-70
2021/01/11 02:47:59;;;;;;;0.80;0.80;;;4.00;98.50;;;;;;4951101;28;20182;-71
2021/01/11 02:50:26;;;;;;;0.70;0.70;;;4.00;98.50;;;;;;4965356;28;20645;-70
2021/01/11 02:53:20;;;;;;;1.03;1.00;;;4.00;98.50;;;;;;4966684;28;20273;-70
2021/01/11 02:55:52;;;;;;;2.10;1.07;;;4.00;98.50;;;;;;4966618;28;20247;-70
2021/01/11 02:58:31;;;;;;;1.63;1.20;;;4.00;98.50;;;;;;4964925;28;20185;-71
2021/01/11 03:01:01;;;;;;;1.13;1.10;;;3.90;98.50;;;;;;4966271;28;20209;-71
2021/01/11 03:03:30;;;;;;;1.47;0.90;;;3.90;98.50;;;;;;4970001;28;20245;-70
2021/01/11 03:05:56;;;;;;;1.27;1.27;;;3.90;98.50;;;;;;4982244;28;20190;-70
2021/01/11 03:08:24;;;;;;;0.97;0.90;;;3.80;98.50;;;;;;4968459;28;20186;-70
2021/01/11 03:10:53;;;;;;;1.53;1.43;;;3.60;98.50;;;;;;4970071;28;20270;-70
2021/01/11 03:13:19;;;;;;;1.00;0.97;;;3.60;98.50;;;;;;4970198;28;20682;-70
2021/01/11 03:15:45;;;;;;;1.43;1.33;;;3.40;98.50;;;;;;4969663;28;20209;-70
2021/01/11 03:18:11;;;;;;;1.10;1.10;;;3.30;98.50;;;;;;4969968;28;20197;-69
2021/01/11 03:20:37;;;;;;;0.87;0.87;;;3.20;98.50;;;;;;4974407;28;20198;-70
2021/01/11 03:23:03;;;;;;;0.70;0.70;;;3.20;98.50;;;;;;4970016;28;20241;-70
2021/01/11 03:25:28;;;;;;;2.73;0.70;;;3.10;98.50;;;;;;4970210;28;20193;-69
2021/01/11 03:27:54;;;;;;;0.73;0.60;;;3.10;98.50;;;;;;4968836;28;20194;-70
2021/01/11 03:30:20;;;;;;;0.67;0.67;;;3.10;98.50;;;;;;4968439;28;20277;-69
2021/01/11 03:32:50;;;;;;;2.43;0.80;;;3.00;98.50;;;;;;4968807;28;20190;-69
2021/01/11 03:35:16;;;;;;;0.60;0.60;;;3.00;98.50;;;;;;4969356;28;20186;-70
2021/01/11 03:37:42;;;;;;;0.60;0.60;;;3.00;98.50;;;;;;4968136;28;20651;-70
2021/01/11 03:40:08;;;;;;;0.40;0.40;;;3.00;98.50;;;;;;4968590;28;20210;-70
2021/01/11 03:42:40;;;;;;;0.27;0.27;;;3.10;98.50;;;;;;4968529;28;20675;-70
2021/01/11 03:45:08;;;;;;;0.60;0.60;;;3.10;98.50;;;;;;4968536;28;20252;-70
2021/01/11 03:47:35;;;;;;;0.63;0.40;;;3.10;98.50;;;;;;4968158;28;20652;-70
2021/01/11 03:50:01;;;;;;;0.67;0.60;;;3.20;98.50;;;;;;4950498;28;20934;-70
2021/01/11 03:52:26;;;;;;;0.40;0.40;;;3.10;98.50;;;;;;4959338;28;20198;-70
2021/01/11 03:54:52;;;;;;;0.30;0.30;;;3.20;98.50;;;;;;4954360;28;20183;-70
2021/01/11 03:57:18;;;;;;;2.00;0.40;;;3.20;98.50;;;;;;4953510;28;20206;-70
2021/01/11 03:59:44;;;;;;;0.40;0.40;;;3.30;98.50;;;;;;4968023;28;20586;-70
2021/01/11 04:02:10;;;;;;;0.30;0.30;;;3.40;98.50;;;;;;4969503;28;20183;-70
2021/01/11 04:04:36;;;;;;;0.30;0.30;;;3.40;98.50;;;;;;4968953;28;20186;-70
2021/01/11 04:07:01;;;;;;;0.40;0.40;;;3.50;98.50;;;;;;4968768;28;20185;-70
2021/01/11 04:09:27;;;;;;;0.40;0.40;;;3.60;98.50;;;;;;4961957;28;20187;-70
2021/01/11 04:11:53;;;;;;;0.73;0.20;;;3.70;98.50;;;;;;4967761;28;20183;-70
2021/01/11 04:14:19;;;;;;;0.30;0.20;;;3.80;98.50;;;;;;4967478;28;20248;-70
2021/01/11 04:16:45;;;;;;;0.20;0.20;;;3.80;98.50;;;;;;4981362;28;20209;-70
2021/01/11 04:19:11;;;;;;;0.27;0.27;;;3.90;98.50;;;;;;4978041;28;20216;-70
2021/01/11 04:21:37;;;;;;;0.27;0.27;;;3.90;98.50;;;;;;4951310;28;20182;-70
2021/01/11 04:24:04;;;;;;;0.60;0.20;;;3.90;98.50;;;;;;4976840;28;20182;-70
2021/01/11 04:26:30;;;;;;;0.10;0.10;;;3.90;98.50;;;;;;4969227;28;20197;-70
2021/01/11 04:28:56;;;;;;;0.10;0.10;;;3.90;98.50;;;;;;4969000;28;20198;-70
2021/01/11 04:31:22;;;;;;;0.17;0.17;;;3.90;98.50;;;;;;4968232;28;20186;-70
2021/01/11 04:33:48;;;;;;;0.17;0.17;;;3.90;98.50;;;;;;4967719;28;20981;-70
2021/01/11 04:36:15;;;;;;;0.23;0.10;;;4.00;98.50;;;;;;4968572;28;20206;-70
2021/01/11 04:38:40;;;;;;;0.10;0.10;;;4.00;98.50;;;;;;4968177;28;20911;-70
2021/01/11 04:41:06;;;;;;;0.10;0.10;;;4.00;98.50;;;;;;4967781;28;20179;-70
2021/01/11 04:43:39;;;;;;;0.40;0.20;;;4.00;98.50;;;;;;4967073;28;20966;-70
2021/01/11 04:46:05;;;;;;;0.10;0.10;;;4.00;98.50;;;;;;4969026;28;20213;-69
2021/01/11 04:48:31;;;;;;;0.10;0.10;;;3.90;98.50;;;;;;4983004;28;20232;-70
2021/01/11 04:50:57;;;;;;;0.70;0.10;;;3.90;98.50;;;;;;4977934;28;20678;-69
2021/01/11 04:53:25;;;;;;;0.17;0.17;;;4.00;98.50;;;;;;4968468;28;20182;-70
2021/01/11 04:55:53;;;;;;;0.10;0.10;;;4.00;98.50;;;;;;4976852;28;20281;-69
2021/01/11 04:58:21;;;;;;;0.30;0.30;;;4.00;98.50;;;;;;4968381;28;20205;-70
2021/01/11 05:00:48;;;;;;;0.20;0.20;;;4.10;98.50;;;;;;4966514;28;20671;-69
2021/01/11 05:03:14;;;;;;;0.10;0.10;;;4.10;98.50;;;;;;4967846;28;20205;-69
2021/01/11 05:05:43;;;;;;;0.10;0.10;;;4.10;98.50;;;;;;4959695;28;20655;-69
2021/01/11 05:08:09;;;;;;;0.20;0.20;;;4.10;98.50;;;;;;4956299;28;20189;-69
2021/01/11 05:10:40;;;;;;;0.83;0.20;;;4.20;98.50;;;;;;4968622;28;20669;-69
2021/01/11 05:13:49;;;;;;;0.27;0.27;;;4.20;98.50;;;;;;4967760;28;20205;-69
2021/01/11 05:16:15;;;;;;;0.10;0.10;;;4.20;98.50;;;;;;4965499;28;20210;-69
2021/01/11 05:18:41;;;;;;;0.30;0.30;;;4.20;98.50;;;;;;4966252;28;20305;-69
2021/01/11 05:21:08;;;;;;;0.17;0.17;;;4.20;98.50;;;;;;4967672;28;20178;-70
2021/01/11 05:23:36;;;;;;;0.20;0.20;;;4.30;98.50;;;;;;4968024;28;20269;-70
2021/01/11 05:26:14;;;;;;;0.20;0.20;;;4.30;98.50;;;;;;4967302;28;20197;-69
2021/01/11 05:28:43;;;;;;;0.20;0.20;;;4.40;98.50;;;;;;4949968;28;20261;-70
2021/01/11 05:31:09;;;;;;;0.20;0.20;;;4.40;98.50;;;;;;4970181;28;20313;-70
2021/01/11 05:33:35;;;;;;;0.20;0.20;;;4.50;98.50;;;;;;4955322;28;20285;-70
2021/01/11 05:36:12;;;;;;;0.30;0.30;;;4.60;98.50;;;;;;4949982;28;20265;-70
2021/01/11 05:38:48;;;;;;;0.20;0.20;;;4.70;98.50;;;;;;4967319;28;20678;-70
2021/01/11 05:41:21;;;;;;;0.30;0.30;;;4.80;98.50;;;;;;4987244;28;20207;-70
2021/01/11 05:43:48;;;;;;;0.33;0.33;;;4.80;98.50;;;;;;4971656;28;20616;-71
2021/01/11 05:46:25;;;;;;;0.30;0.30;;;4.90;98.50;;;;;;4967679;28;20297;-70
2021/01/11 05:49:01;;;;;;;0.57;0.30;;;4.90;98.50;;;;;;4966826;28;20265;-70
2021/01/11 05:51:46;;;;;;;0.40;0.40;;;5.00;98.50;;;;;;4965384;28;20209;-70
2021/01/11 05:54:26;;;;;;;2.70;1.07;;;5.00;98.50;;;;;;4966775;28;20177;-71
2021/01/11 05:56:56;;;;;;;0.60;0.60;;;5.10;98.50;;;;;;4976923;28;20275;-71
2021/01/11 05:59:22;;;;;;;1.43;0.90;;;5.10;98.50;;;;;;4979580;28;20911;-70
2021/01/11 06:01:48;;;;;;;1.57;0.80;;;5.10;98.50;;;;;;4982305;28;20189;-70
2021/01/11 06:04:15;;;;;;;0.80;0.80;;;5.10;98.50;;;;;;4971143;28;20181;-70
2021/01/11 06:06:41;;;;;;;1.10;1.10;;;5.10;98.50;;;;;;4969000;28;20277;-70
2021/01/11 06:09:09;;;;;;;4.47;1.23;;;5.10;98.50;;;;;;4971152;28;20201;-70
2021/01/11 06:11:38;;;;;;;1.90;1.10;;;5.20;98.50;;;;;;4965837;28;20190;-74
2021/01/11 06:14:05;;;;;;;1.20;1.20;;;5.20;98.50;;;;;;4949245;28;20182;-75
2021/01/11 06:16:32;;;;;;;1.77;1.30;;;5.20;98.50;;;;;;4967969;28;20198;-72
2021/01/11 06:26:00;;;;;;;3.80;3.43;;;5.00;98.50;;;;;;4950659;28;20237;-74
2021/01/11 07:05:42;;;;;;;3.77;3.47;;;4.70;98.50;;;;;;4905541;29;20203;-70
2021/01/11 07:08:09;;;;;;;8.87;4.93;;;4.70;98.50;;;;;;4901453;29;20227;-70
2021/01/11 07:10:36;;;;;;;4.90;4.43;;;4.70;98.50;;;;;;4906820;29;20224;-70
2021/01/11 07:13:17;;;;;;;4.63;3.87;;;4.70;98.50;;;;;;4887362;29;20302;-71
2021/01/11 07:15:52;;;;;;;4.60;4.23;;;4.60;98.50;;;;;;4893562;29;20193;-71
2021/01/11 07:18:36;;;;;;;7.80;4.83;;;4.60;98.50;;;;;;4910971;29;20722;-72
2021/01/11 07:21:12;;;;;;;5.23;4.73;;;4.60;98.50;;;;;;4905568;29;20192;-70
2021/01/11 07:23:38;;;;;;;5.60;5.10;;;4.60;98.50;;;;;;4918388;29;21373;-70
2021/01/11 07:26:08;;;;;;;6.10;5.37;;;4.60;98.50;;;;;;4906448;29;20211;-70
2021/01/11 07:28:34;;;;;;;8.40;5.63;;;4.50;98.50;;;;;;4899668;29;20247;-72
2021/01/11 07:31:00;;;;;;;9.10;5.60;;;4.40;98.50;;;;;;4894014;29;20211;-72
2021/01/11 07:33:25;;;;;;;7.87;5.10;;;4.50;98.50;;;;;;4902765;29;20193;-71
2021/01/11 07:35:51;;;;;;;6.73;5.60;;;4.40;98.50;;;;;;4950343;28;20250;-70
2021/01/11 07:38:23;;;;;;;8.70;4.73;;;4.40;98.50;;;;;;4959288;28;20787;-72
2021/01/11 07:40:59;;;;;;;5.37;4.70;;;4.30;98.50;;;;;;4959728;28;21010;-70
2021/01/11 07:43:28;;;;;;;7.20;4.60;;;4.30;98.50;;;;;;4939574;28;20880;-71
2021/01/11 07:46:21;;;;;;;;;;;;;;;;;;;;;
2021/01/11 07:48:48;;;;;;;8.00;4.63;;;4.30;98.50;;;;;;4950293;28;20196;-71
2021/01/11 07:51:13;;;;;;;6.40;4.93;;;4.30;98.50;;;;;;4941762;28;20174;-68
2021/01/11 07:53:39;;;;;;;5.83;4.60;;;4.30;98.50;;;;;;4957084;28;20569;-68
2021/01/11 07:56:09;;;;;;;4.83;4.30;;;4.30;98.50;;;;;;4954286;28;20214;-68
2021/01/11 07:58:37;;;;;;;4.10;3.80;;;4.30;98.50;;;;;;4955196;28;20252;-68
2021/01/11 08:01:08;;;;;;;5.67;4.23;;;4.20;98.50;;;;;;4952708;28;20253;-69
2021/01/11 08:03:33;;;;;;;4.80;4.17;;;4.30;98.50;;;;;;4954957;28;20244;-69
2021/01/11 08:06:03;;;;;;;6.37;4.57;;;4.30;98.50;;;;;;4953777;28;20190;-69
2021/01/11 08:08:33;;;;;;;8.40;4.60;;;4.30;98.50;;;;;;4955180;28;20193;-68
2021/01/11 08:11:03;;;;;;;8.17;4.53;;;4.20;98.50;;;;;;4958236;28;20232;-68
2021/01/11 08:13:29;;;;;;;6.60;4.27;;;4.20;98.50;;;;;;4963877;28;20171;-69
2021/01/11 08:16:10;;;;;;;6.17;4.30;;;4.20;98.50;;;;;;4955182;28;20691;-69
2021/01/11 08:18:35;;;;;;;10.50;5.37;;;4.10;98.50;;;;;;4943435;28;20198;-68
2021/01/11 08:21:13;;;;;;;9.77;4.77;;;4.20;98.50;;;;;;4954992;28;20610;-68
2021/01/11 08:23:39;;;;;;;8.63;4.47;;;4.20;98.50;;;;;;4954535;28;20191;-69
2021/01/11 08:26:10;;;;;;;5.43;5.00;;;4.30;98.50;;;;;;4959540;28;20189;-69
2021/01/11 08:28:38;;;;;;;5.17;4.57;;;4.30;98.50;;;;;;4954263;28;20202;-69
2021/01/11 08:31:04;;;;;;;5.73;4.10;;;4.30;98.50;;;;;;4964499;28;20285;-68
2021/01/11 08:33:31;;;;;;;6.40;4.27;;;4.30;98.50;;;;;;4937516;28;20924;-68
2021/01/11 08:36:20;;;;;;;6.10;4.70;;;4.30;98.50;;;;;;4955086;28;20221;-69
2021/01/11 08:39:04;;;;;;;5.63;3.90;;;4.30;98.50;;;;;;4955234;28;20179;-69
2021/01/11 08:41:32;;;;;;;3.60;3.30;;;4.30;98.50;;;;;;4953697;28;20190;-69
2021/01/11 08:43:58;;;;;;;4.10;3.80;;;4.30;98.50;;;;;;4954374;28;20593;-69
2021/01/11 08:46:24;;;;;;;5.77;4.07;;;4.40;98.50;;;;;;4965122;28;20805;-69
2021/01/11 08:48:50;;;;;;;3.03;2.83;;;4.50;98.50;;;;;;4960266;28;20194;-69
2021/01/11 08:51:25;;;;;;;3.77;3.53;;;4.50;98.50;;;;;;4955587;28;20186;-69
2021/01/11 08:53:51;;;;;;;5.47;3.97;;;4.60;98.50;;;;;;4953813;28;20734;-69
2021/01/11 08:56:27;;;;;;;4.40;3.70;;;4.70;98.50;;;;;;4962622;28;20284;-69
2021/01/11 08:58:53;;;;;;;3.60;3.37;;;4.80;98.50;;;;;;4966121;28;20188;-69
2021/01/11 09:01:22;;;;;;;4.40;3.53;;;4.80;98.50;;;;;;4947749;28;20911;-68
2021/01/11 09:03:55;;;;;;;5.57;3.67;;;4.90;98.50;;;;;;4966865;28;20186;-68
2021/01/11 09:06:38;;;;;;;4.20;3.77;;;4.90;98.50;;;;;;4965651;28;20253;-68
2021/01/11 09:09:08;;;;;;;3.60;3.27;;;5.00;98.50;;;;;;4963127;28;20171;-68
2021/01/11 09:11:34;;;;;;;3.73;3.03;;;5.00;98.50;;;;;;4966940;28;20187;-69
2021/01/11 09:14:07;;;;;;;4.70;3.47;;;5.10;98.50;;;;;;4962441;28;20178;-69
2021/01/11 09:16:34;;;;;;;3.87;3.20;;;5.10;98.50;;;;;;4948243;28;20252;-69
2021/01/11 09:19:09;;;;;;;6.00;3.40;;;5.00;98.50;;;;;;4965342;28;20193;-69
2021/01/11 09:21:35;;;;;;;2.93;2.73;;;5.00;98.50;;;;;;4965130;28;20189;-68
2021/01/11 09:24:01;;;;;;;4.30;3.80;;;5.00;98.50;;;;;;4966099;28;20174;-69
2021/01/11 09:26:31;;;;;;;3.00;2.80;;;5.10;98.50;;;;;;4966320;28;20189;-68
2021/01/11 09:29:00;;;;;;;4.07;3.70;;;5.10;98.50;;;;;;4965372;28;20209;-68
2021/01/11 09:31:25;;;;;;;3.93;3.63;;;5.20;98.50;;;;;;4964969;28;20193;-69
2021/01/11 09:33:53;;;;;;;4.90;3.90;;;5.20;98.50;;;;;;4966207;28;20184;-69
2021/01/11 09:36:20;;;;;;;3.90;3.60;;;5.30;98.50;;;;;;4967199;28;20194;-69
2021/01/11 09:38:47;;;;;;;4.37;3.40;;;5.30;98.50;;;;;;4966090;28;20190;-71
2021/01/11 09:41:13;;;;;;;3.90;3.60;;;5.30;98.50;;;;;;4965159;28;20189;-70
2021/01/11 09:43:38;;;;;;;4.07;3.37;;;5.40;98.50;;;;;;4965509;28;20193;-70
2021/01/11 09:46:04;;;;;;;2.93;2.73;;;5.40;98.50;;;;;;4966528;28;20205;-70
2021/01/11 09:48:30;;;;;;;2.93;2.73;;;5.40;98.50;;;;;;4966287;28;20201;-70
2021/01/11 09:50:55;;;;;;;3.63;3.33;;;5.40;98.50;;;;;;4965024;28;20190;-70
2021/01/11 09:53:21;;;;;;;4.37;3.97;;;5.50;98.50;;;;;;4963536;28;20707;-70
2021/01/11 09:55:47;;;;;;;5.63;4.57;;;5.50;98.50;;;;;;4967560;28;20221;-70
2021/01/11 09:58:16;;;;;;;6.47;5.47;;;5.60;98.50;;;;;;4968003;28;20704;-70
2021/01/11 10:00:41;;;;;;;13.13;8.40;;;5.60;98.50;;;;;;4964949;28;20178;-70
2021/01/11 10:03:08;;;;;;;14.37;9.60;;;5.70;98.50;;;;;;4947189;28;20197;-70
2021/01/11 10:05:33;;;;;;;14.70;10.03;;;5.70;98.40;;;;;;4950515;28;20185;-70
2021/01/11 10:07:59;;;;;;;12.80;8.47;;;5.70;98.20;;;;;;4966646;28;20192;-70
2021/01/11 10:10:25;;;;;;;13.43;8.60;;;5.60;98.00;;;;;;4963821;28;20186;-70
2021/01/11 10:12:51;;;;;;;11.67;7.57;;;5.60;97.80;;;;;;4963561;28;20679;-70
2021/01/11 10:15:17;;;;;;;22.93;9.67;;;5.60;98.20;;;;;;4946699;28;20297;-70
2021/01/11 10:17:42;;;;;;;13.33;9.30;;;5.60;98.40;;;;;;4964433;28;20272;-70
2021/01/11 10:20:10;;;;;;;14.57;8.63;;;5.70;98.50;;;;;;4963847;28;20186;-70
2021/01/11 10:22:35;;;;;;;14.13;9.13;;;5.70;98.50;;;;;;4929567;29;20190;-70
2021/01/11 10:25:02;;;;;;;12.07;8.67;;;5.80;98.50;;;;;;4952234;28;20240;-70
2021/01/11 10:27:27;;;;;;;15.13;9.13;;;5.90;98.50;;;;;;4966013;28;20301;-70
2021/01/11 10:29:54;;;;;;;12.73;9.00;;;6.00;98.50;;;;;;4965345;28;20211;-70
2021/01/11 10:32:19;;;;;;;13.53;9.73;;;6.10;98.50;;;;;;4966398;28;20198;-70
2021/01/11 10:34:45;;;;;;;14.30;9.00;;;6.20;98.20;;;;;;4965538;28;20190;-69
2021/01/11 10:37:11;;;;;;;15.90;9.53;;;6.20;98.00;;;;;;4961827;28;20293;-69
2021/01/11 10:39:37;;;;;;;15.10;9.07;;;6.20;98.00;;;;;;4965051;28;20735;-70
2021/01/11 10:42:03;;;;;;;12.90;9.43;;;6.30;98.10;;;;;;4955691;28;20293;-70
2021/01/11 10:44:29;;;;;;;17.73;9.97;;;6.30;97.90;;;;;;4948207;28;20188;-70
2021/01/11 10:47:00;;;;;;;15.97;10.00;;;6.30;97.60;;;;;;4964179;28;20638;-70
2021/01/11 10:49:26;;;;;;;12.33;8.50;;;6.30;97.40;;;;;;4965000;28;20192;-70
2021/01/11 10:51:55;;;;;;;13.10;8.37;;;6.30;97.10;;;;;;4965719;28;20210;-70
2021/01/11 10:54:20;;;;;;;11.47;8.13;;;6.30;96.80;;;;;;4965899;28;20186;-71
2021/01/11 10:56:48;;;;;;;8.03;5.73;;;6.30;96.90;;;;;;4964609;28;20207;-70
2021/01/11 10:59:15;;;;;;;7.47;5.23;;;6.20;96.50;;;;;;4946740;28;20191;-71
2021/01/11 11:01:41;;;;;;;7.27;5.87;;;6.10;96.50;;;;;;4964765;28;20270;-69
2021/01/11 11:04:06;;;;;;;7.63;6.27;;;6.10;96.60;;;;;;4963992;28;20190;-70
2021/01/11 11:06:32;;;;;;;12.63;7.23;;;6.10;96.70;;;;;;4964025;28;20249;-69
2021/01/11 11:08:58;;;;;;;6.97;5.47;;;6.00;96.50;;;;;;4963681;28;20190;-72
2021/01/11 11:11:24;;;;;;;5.37;4.77;;;5.90;96.40;;;;;;4962711;28;21050;-71
2021/01/11 11:13:49;;;;;;;5.53;4.07;;;5.80;96.10;;;;;;4960846;28;20189;-70
2021/01/11 11:16:16;;;;;;;4.10;3.80;;;5.60;96.10;;;;;;4963729;28;20261;-70
2021/01/11 11:18:43;;;;;;;3.47;3.07;;;5.50;96.40;;;;;;4965529;28;20261;-69
2021/01/11 11:21:12;;;;;;;4.70;3.00;;;5.40;96.70;;;;;;4964893;28;20197;-69
2021/01/11 11:23:38;;;;;;;6.90;3.80;;;5.30;96.90;;;;;;4957364;28;20233;-69
2021/01/11 11:26:06;;;;;;;3.67;3.47;;;5.20;97.30;;;;;;4956218;28;20198;-70
2021/01/11 11:28:33;;;;;;;4.53;4.03;;;5.20;97.80;;;;;;4968365;28;20205;-69
2021/01/11 11:30:58;;;;;;;3.83;3.30;;;5.30;98.30;;;;;;4968861;28;20276;-69
2021/01/11 11:33:25;;;;;;;4.93;3.40;;;5.40;98.40;;;;;;4969263;28;20795;-71
2021/01/11 11:35:51;;;;;;;3.57;3.27;;;5.50;98.50;;;;;;4969194;28;20198;-71
2021/01/11 11:38:21;;;;;;;3.20;2.73;;;5.70;98.50;;;;;;4967718;28;20182;-70
2021/01/11 11:40:47;;;;;;;3.80;3.50;;;5.80;98.20;;;;;;4954350;28;20220;-72
2021/01/11 11:43:14;;;;;;;5.07;3.67;;;5.90;97.60;;;;;;4969860;28;20175;-71
2021/01/11 11:45:42;;;;;;;3.77;3.30;;;5.90;97.00;;;;;;4952066;28;20570;-71
2021/01/11 11:48:07;;;;;;;3.67;3.43;;;5.90;96.60;;;;;;4952238;28;20182;-73
2021/01/11 11:50:33;;;;;;;2.60;2.43;;;5.80;96.40;;;;;;4964907;28;20331;-72
2021/01/11 11:52:59;;;;;;;1.90;1.80;;;5.80;96.20;;;;;;4971475;28;20187;-71
2021/01/11 11:55:25;;;;;;;1.30;1.30;;;5.70;96.10;;;;;;4968563;28;20281;-70
2021/01/11 11:57:50;;;;;;;1.33;1.23;;;5.70;96.10;;;;;;4968033;28;20206;-73
2021/01/11 12:00:17;;;;;;;2.43;1.70;;;5.70;96.30;;;;;;4967191;28;20198;-71
2021/01/11 12:02:45;;;;;;;1.30;1.30;;;5.70;96.40;;;;;;4972274;28;20186;-71
2021/01/11 12:05:12;;;;;;;1.87;1.83;;;5.70;96.30;;;;;;4975454;28;20219;-72
2021/01/11 12:07:38;;;;;;;2.13;2.03;;;5.70;96.30;;;;;;4977413;28;20194;-72
2021/01/11 12:10:06;;;;;;;1.90;1.80;;;5.60;96.20;;;;;;4968181;28;20571;-72
2021/01/11 12:12:31;;;;;;;2.03;1.93;;;5.60;95.90;;;;;;4967229;28;20182;-71
2021/01/11 12:14:59;;;;;;;2.20;2.00;;;5.40;95.40;;;;;;4950916;28;20196;-71
2021/01/11 12:17:26;;;;;;;2.33;2.20;;;5.20;95.40;;;;;;4966304;28;20233;-71
2021/01/11 12:19:52;;;;;;;3.03;2.80;;;5.10;95.60;;;;;;4961991;28;20191;-71
2021/01/11 12:22:18;;;;;;;4.50;3.00;;;4.90;96.10;;;;;;4978598;28;20193;-71
2021/01/11 12:24:43;;;;;;;3.57;2.83;;;4.90;96.80;;;;;;4951686;28;20206;-70
2021/01/11 12:27:12;;;;;;;3.73;3.43;;;4.80;96.70;;;;;;4979013;28;20193;-71
2021/01/11 12:29:37;;;;;;;3.73;3.23;;;4.70;96.70;;;;;;4967838;28;20186;-71
2021/01/11 12:32:07;;;;;;;3.93;3.50;;;4.50;96.60;;;;;;4968082;28;20182;-71
2021/01/11 12:34:39;;;;;;;6.83;3.17;;;4.50;96.80;;;;;;4950624;28;20201;-71
2021/01/11 12:37:05;;;;;;;3.67;3.47;;;4.40;97.00;;;;;;4966961;28;20205;-71
2021/01/11 12:39:30;;;;;;;3.27;3.07;;;4.30;97.20;;;;;;4975226;28;20200;-71
2021/01/11 12:41:56;;;;;;;4.63;3.67;;;4.10;97.30;;;;;;4966625;28;20178;-71
2021/01/11 12:44:22;;;;;;;7.23;4.10;;;4.10;97.80;;;;;;4968923;28;20166;-71
2021/01/11 12:46:48;;;;;;;5.60;3.90;;;4.00;97.90;;;;;;4955210;28;20193;-71
2021/01/11 12:49:13;;;;;;;5.27;4.23;;;4.00;98.30;;;;;;4974371;28;20186;-71
2021/01/11 12:51:39;;;;;;;4.07;3.77;;;4.10;98.50;;;;;;4955030;28;20262;-72
2021/01/11 12:54:05;;;;;;;4.37;3.27;;;4.20;98.50;;;;;;4950795;28;20207;-71
2021/01/11 12:56:31;;;;;;;2.07;1.97;;;4.20;98.40;;;;;;4967538;28;20300;-72
2021/01/11 12:58:58;;;;;;;2.80;2.60;;;4.10;98.20;;;;;;4976600;28;20182;-69
2021/01/11 13:01:25;;;;;;;2.43;2.23;;;4.20;98.30;;;;;;4967332;28;20170;-69
2021/01/11 13:03:52;;;;;;;2.70;2.03;;;4.20;98.50;;;;;;4966036;28;20265;-69
2021/01/11 13:06:24;;;;;;;1.90;1.60;;;4.20;98.50;;;;;;4974586;28;20640;-72
2021/01/11 13:08:50;;;;;;;3.93;2.37;;;4.30;98.50;;;;;;4974285;28;20195;-68
2021/01/11 13:11:21;;;;;;;2.00;1.90;;;4.40;98.50;;;;;;4954054;28;20183;-68
2021/01/11 13:13:52;;;;;;;2.30;1.40;;;4.40;98.30;;;;;;4972312;28;20277;-68
2021/01/11 13:16:36;;;;;;;2.47;2.37;;;4.30;98.20;;;;;;4960178;28;20874;-68
2021/01/11 13:19:04;;;;;;;5.07;4.23;;;4.20;98.10;;;;;;4962106;28;20178;-68
2021/01/11 13:21:30;;;;;;;4.90;3.80;;;4.10;98.20;;;;;;4976460;28;20189;-69
2021/01/11 13:23:57;;;;;;;9.20;6.37;;;4.00;98.50;;;;;;4978880;28;20185;-69
2021/01/11 13:26:33;;;;;;;11.67;6.70;;;3.90;98.50;;;;;;4964530;28;20660;-69
2021/01/11 13:29:01;;;;;;;8.97;6.70;;;3.90;98.50;;;;;;4957780;28;20329;-69
2021/01/11 13:31:29;;;;;;;8.40;5.37;;;3.80;98.50;;;;;;4952968;28;20263;-69
2021/01/11 13:33:56;;;;;;;5.47;5.00;;;3.80;98.50;;;;;;4968294;28;20182;-69
2021/01/11 13:36:28;;;;;;;5.10;4.30;;;3.80;98.50;;;;;;4968549;28;20201;-68
2021/01/11 13:38:54;;;;;;;4.73;4.30;;;3.80;98.50;;;;;;4972729;28;20256;-69
2021/01/11 13:41:20;;;;;;;6.33;4.13;;;3.90;98.50;;;;;;4967321;28;20182;-69
2021/01/11 13:43:46;;;;;;;5.00;3.87;;;3.80;98.50;;;;;;4957116;28;20244;-70
2021/01/11 13:46:13;;;;;;;4.90;4.33;;;3.80;98.50;;;;;;4957456;28;20257;-70
2021/01/11 13:48:39;;;;;;;4.77;3.63;;;3.70;98.50;;;;;;4962007;28;20190;-68